sensor_id;sensor_type;location;lat;lon;timestamp;P1;durP1;ratioP1;P2;durP2;ratioP2
68273;SDS011;55104;47.356;19.448;2024-02-23T00:02:20;2.65;;;0.90;;
68273;SDS011;55104;47.356;19.448;2024-02-23T00:05:22;1.95;;;0.40;;
68273;SDS011;55104;47.356;19.448;2024-02-23T00:08:24;2.63;;;0.77;;
68273;SDS011;55104;47.356;19.448;2024-02-23T00:11:26;2.40;;;0.75;;
68273;SDS011;55104;47.356;19.448;2024-02-23T00:14:30;1.63;;;0.52;;
68273;SDS011;55104;47.356;19.448;2024-02-23T00:17:38;2.40;;;0.63;;
68273;SDS011;55104;47.356;19.448;2024-02-23T00:20:41;2.10;;;0.55;;
68273;SDS011;55104;47.356;19.448;2024-02-23T00:23:43;2.97;;;0.80;;
68273;SDS011;55104;47.356;19.448;2024-02-23T00:26:46;4.30;;;0.93;;
68273;SDS011;55104;47.356;19.448;2024-02-23T00:29:48;2.53;;;0.70;;
68273;SDS011;55104;47.356;19.448;2024-02-23T00:32:50;4.13;;;0.82;;
68273;SDS011;55104;47.356;19.448;2024-02-23T00:35:52;1.67;;;0.60;;
68273;SDS011;55104;47.356;19.448;2024-02-23T00:38:55;2.17;;;0.50;;
68273;SDS011;55104;47.356;19.448;2024-02-23T00:41:57;2.38;;;0.82;;
68273;SDS011;55104;47.356;19.448;2024-02-23T00:44:59;2.35;;;0.80;;
68273;SDS011;55104;47.356;19.448;2024-02-23T00:48:01;1.38;;;0.40;;
68273;SDS011;55104;47.356;19.448;2024-02-23T00:51:03;6.33;;;1.03;;
68273;SDS011;55104;47.356;19.448;2024-02-23T00:54:06;2.58;;;0.70;;
68273;SDS011;55104;47.356;19.448;2024-02-23T00:57:09;1.83;;;0.50;;
68273;SDS011;55104;47.356;19.448;2024-02-23T01:00:12;2.67;;;0.70;;
68273;SDS011;55104;47.356;19.448;2024-02-23T01:03:16;3.13;;;0.83;;
68273;SDS011;55104;47.356;19.448;2024-02-23T01:06:18;2.97;;;0.98;;
68273;SDS011;55104;47.356;19.448;2024-02-23T01:09:20;3.17;;;1.00;;
68273;SDS011;55104;47.356;19.448;2024-02-23T01:12:23;3.13;;;1.00;;
68273;SDS011;55104;47.356;19.448;2024-02-23T01:15:25;2.38;;;0.60;;
68273;SDS011;55104;47.356;19.448;2024-02-23T01:18:27;1.70;;;0.70;;
68273;SDS011;55104;47.356;19.448;2024-02-23T01:21:29;1.45;;;0.47;;
68273;SDS011;55104;47.356;19.448;2024-02-23T01:24:32;2.30;;;0.80;;
68273;SDS011;55104;47.356;19.448;2024-02-23T01:27:34;2.55;;;0.50;;
68273;SDS011;55104;47.356;19.448;2024-02-23T01:30:36;4.45;;;0.70;;
68273;SDS011;55104;47.356;19.448;2024-02-23T01:33:38;2.58;;;0.70;;
68273;SDS011;55104;47.356;19.448;2024-02-23T01:36:41;2.10;;;0.80;;
68273;SDS011;55104;47.356;19.448;2024-02-23T01:39:43;2.70;;;0.90;;
68273;SDS011;55104;47.356;19.448;2024-02-23T01:42:46;2.45;;;0.82;;
68273;SDS011;55104;47.356;19.448;2024-02-23T01:45:48;5.53;;;1.03;;
68273;SDS011;55104;47.356;19.448;2024-02-23T01:48:50;2.78;;;0.68;;
68273;SDS011;55104;47.356;19.448;2024-02-23T01:51:53;1.05;;;0.50;;
68273;SDS011;55104;47.356;19.448;2024-02-23T01:54:55;6.38;;;0.73;;
68273;SDS011;55104;47.356;19.448;2024-02-23T01:57:58;2.93;;;0.60;;
68273;SDS011;55104;47.356;19.448;2024-02-23T02:01:03;2.83;;;0.85;;
68273;SDS011;55104;47.356;19.448;2024-02-23T02:04:05;2.80;;;1.02;;
68273;SDS011;55104;47.356;19.448;2024-02-23T02:07:08;2.00;;;0.75;;
68273;SDS011;55104;47.356;19.448;2024-02-23T02:10:10;3.23;;;0.90;;
68273;SDS011;55104;47.356;19.448;2024-02-23T02:13:13;2.08;;;0.47;;
68273;SDS011;55104;47.356;19.448;2024-02-23T02:16:15;2.33;;;0.55;;
68273;SDS011;55104;47.356;19.448;2024-02-23T02:19:18;0.90;;;0.35;;
68273;SDS011;55104;47.356;19.448;2024-02-23T02:22:20;3.13;;;0.77;;
68273;SDS011;55104;47.356;19.448;2024-02-23T02:25:22;1.25;;;0.43;;
68273;SDS011;55104;47.356;19.448;2024-02-23T02:28:25;8.30;;;0.88;;
68273;SDS011;55104;47.356;19.448;2024-02-23T02:31:28;1.27;;;0.50;;
68273;SDS011;55104;47.356;19.448;2024-02-23T02:34:30;1.95;;;0.50;;
68273;SDS011;55104;47.356;19.448;2024-02-23T02:37:32;2.17;;;0.70;;
68273;SDS011;55104;47.356;19.448;2024-02-23T02:40:34;0.68;;;0.20;;
68273;SDS011;55104;47.356;19.448;2024-02-23T02:43:37;2.77;;;0.87;;
68273;SDS011;55104;47.356;19.448;2024-02-23T02:46:40;2.53;;;0.77;;
68273;SDS011;55104;47.356;19.448;2024-02-23T02:49:42;2.80;;;0.63;;
68273;SDS011;55104;47.356;19.448;2024-02-23T02:52:44;5.55;;;1.23;;
68273;SDS011;55104;47.356;19.448;2024-02-23T02:55:46;2.47;;;0.83;;
68273;SDS011;55104;47.356;19.448;2024-02-23T02:58:49;2.15;;;0.57;;
68273;SDS011;55104;47.356;19.448;2024-02-23T03:01:51;2.38;;;0.60;;
68273;SDS011;55104;47.356;19.448;2024-02-23T03:04:53;5.70;;;1.05;;
68273;SDS011;55104;47.356;19.448;2024-02-23T03:07:57;3.90;;;0.97;;
68273;SDS011;55104;47.356;19.448;2024-02-23T03:10:59;0.73;;;0.28;;
68273;SDS011;55104;47.356;19.448;2024-02-23T03:14:01;4.45;;;0.70;;
68273;SDS011;55104;47.356;19.448;2024-02-23T03:17:04;3.67;;;1.10;;
68273;SDS011;55104;47.356;19.448;2024-02-23T03:20:07;4.10;;;0.93;;
68273;SDS011;55104;47.356;19.448;2024-02-23T03:23:13;2.42;;;0.68;;
68273;SDS011;55104;47.356;19.448;2024-02-23T03:26:15;3.08;;;0.98;;
68273;SDS011;55104;47.356;19.448;2024-02-23T03:29:19;1.08;;;0.40;;
68273;SDS011;55104;47.356;19.448;2024-02-23T03:32:21;3.63;;;1.07;;
68273;SDS011;55104;47.356;19.448;2024-02-23T03:35:24;2.55;;;0.60;;
68273;SDS011;55104;47.356;19.448;2024-02-23T03:38:26;2.17;;;0.70;;
68273;SDS011;55104;47.356;19.448;2024-02-23T03:41:31;1.45;;;0.40;;
68273;SDS011;55104;47.356;19.448;2024-02-23T03:44:33;2.30;;;0.57;;
68273;SDS011;55104;47.356;19.448;2024-02-23T03:47:35;2.45;;;0.73;;
68273;SDS011;55104;47.356;19.448;2024-02-23T03:50:38;2.55;;;0.65;;
68273;SDS011;55104;47.356;19.448;2024-02-23T03:53:40;3.35;;;0.82;;
68273;SDS011;55104;47.356;19.448;2024-02-23T03:56:42;1.93;;;0.60;;
68273;SDS011;55104;47.356;19.448;2024-02-23T03:59:54;4.35;;;1.10;;
68273;SDS011;55104;47.356;19.448;2024-02-23T04:02:57;2.53;;;0.68;;
68273;SDS011;55104;47.356;19.448;2024-02-23T04:05:59;3.03;;;0.90;;
68273;SDS011;55104;47.356;19.448;2024-02-23T04:09:01;3.83;;;1.17;;
68273;SDS011;55104;47.356;19.448;2024-02-23T04:12:07;2.63;;;1.10;;
68273;SDS011;55104;47.356;19.448;2024-02-23T04:15:09;4.70;;;0.90;;
68273;SDS011;55104;47.356;19.448;2024-02-23T04:18:11;2.85;;;0.60;;
68273;SDS011;55104;47.356;19.448;2024-02-23T04:21:14;1.80;;;0.43;;
68273;SDS011;55104;47.356;19.448;2024-02-23T04:24:17;1.98;;;0.52;;
68273;SDS011;55104;47.356;19.448;2024-02-23T04:27:19;3.88;;;0.75;;
68273;SDS011;55104;47.356;19.448;2024-02-23T04:30:21;2.22;;;0.88;;
68273;SDS011;55104;47.356;19.448;2024-02-23T04:33:23;4.33;;;0.90;;
68273;SDS011;55104;47.356;19.448;2024-02-23T04:36:25;3.30;;;0.85;;
68273;SDS011;55104;47.356;19.448;2024-02-23T04:39:27;1.95;;;0.90;;
68273;SDS011;55104;47.356;19.448;2024-02-23T04:42:30;2.78;;;0.80;;
68273;SDS011;55104;47.356;19.448;2024-02-23T04:45:31;3.27;;;1.03;;
68273;SDS011;55104;47.356;19.448;2024-02-23T04:48:33;0.82;;;0.40;;
68273;SDS011;55104;47.356;19.448;2024-02-23T04:51:38;2.97;;;0.80;;
68273;SDS011;55104;47.356;19.448;2024-02-23T04:54:40;5.65;;;1.13;;
68273;SDS011;55104;47.356;19.448;2024-02-23T04:57:42;3.17;;;0.93;;
68273;SDS011;55104;47.356;19.448;2024-02-23T05:00:44;2.88;;;0.80;;
68273;SDS011;55104;47.356;19.448;2024-02-23T05:03:46;2.03;;;0.75;;
68273;SDS011;55104;47.356;19.448;2024-02-23T05:06:48;2.75;;;0.75;;
68273;SDS011;55104;47.356;19.448;2024-02-23T05:09:51;3.53;;;0.87;;
68273;SDS011;55104;47.356;19.448;2024-02-23T05:12:53;4.30;;;0.90;;
68273;SDS011;55104;47.356;19.448;2024-02-23T05:15:55;4.75;;;0.98;;
68273;SDS011;55104;47.356;19.448;2024-02-23T05:18:58;3.75;;;0.80;;
68273;SDS011;55104;47.356;19.448;2024-02-23T05:22:01;9.33;;;1.90;;
68273;SDS011;55104;47.356;19.448;2024-02-23T05:25:03;3.58;;;0.80;;
68273;SDS011;55104;47.356;19.448;2024-02-23T05:28:06;3.05;;;0.90;;
68273;SDS011;55104;47.356;19.448;2024-02-23T05:31:09;2.63;;;0.73;;
68273;SDS011;55104;47.356;19.448;2024-02-23T05:34:12;2.83;;;0.65;;
68273;SDS011;55104;47.356;19.448;2024-02-23T05:37:14;2.15;;;0.68;;
68273;SDS011;55104;47.356;19.448;2024-02-23T05:40:17;3.17;;;0.93;;
68273;SDS011;55104;47.356;19.448;2024-02-23T05:43:19;3.00;;;0.73;;
68273;SDS011;55104;47.356;19.448;2024-02-23T05:46:21;3.80;;;1.25;;
68273;SDS011;55104;47.356;19.448;2024-02-23T05:49:24;3.72;;;1.02;;
68273;SDS011;55104;47.356;19.448;2024-02-23T05:52:26;4.32;;;1.50;;
68273;SDS011;55104;47.356;19.448;2024-02-23T05:55:29;2.73;;;0.90;;
68273;SDS011;55104;47.356;19.448;2024-02-23T05:58:31;2.95;;;0.70;;
68273;SDS011;55104;47.356;19.448;2024-02-23T06:01:33;2.40;;;0.80;;
68273;SDS011;55104;47.356;19.448;2024-02-23T06:04:35;5.65;;;1.83;;
68273;SDS011;55104;47.356;19.448;2024-02-23T06:07:37;3.23;;;0.90;;
68273;SDS011;55104;47.356;19.448;2024-02-23T06:10:40;4.10;;;1.17;;
68273;SDS011;55104;47.356;19.448;2024-02-23T06:13:44;4.45;;;1.30;;
68273;SDS011;55104;47.356;19.448;2024-02-23T06:16:46;5.00;;;1.33;;
68273;SDS011;55104;47.356;19.448;2024-02-23T06:19:49;5.63;;;1.27;;
68273;SDS011;55104;47.356;19.448;2024-02-23T06:22:51;3.05;;;0.73;;
68273;SDS011;55104;47.356;19.448;2024-02-23T06:25:53;3.00;;;1.00;;
68273;SDS011;55104;47.356;19.448;2024-02-23T06:28:55;4.28;;;0.90;;
68273;SDS011;55104;47.356;19.448;2024-02-23T06:31:58;4.40;;;1.17;;
68273;SDS011;55104;47.356;19.448;2024-02-23T06:35:03;4.57;;;1.08;;
68273;SDS011;55104;47.356;19.448;2024-02-23T06:38:08;5.18;;;1.27;;
68273;SDS011;55104;47.356;19.448;2024-02-23T06:41:11;2.10;;;0.80;;
68273;SDS011;55104;47.356;19.448;2024-02-23T06:44:13;4.68;;;1.23;;
68273;SDS011;55104;47.356;19.448;2024-02-23T06:47:16;4.70;;;1.20;;
68273;SDS011;55104;47.356;19.448;2024-02-23T06:50:18;3.05;;;0.95;;
68273;SDS011;55104;47.356;19.448;2024-02-23T06:53:20;6.00;;;1.33;;
68273;SDS011;55104;47.356;19.448;2024-02-23T06:56:22;7.60;;;2.45;;
68273;SDS011;55104;47.356;19.448;2024-02-23T06:59:25;3.42;;;1.50;;
68273;SDS011;55104;47.356;19.448;2024-02-23T07:02:27;4.10;;;1.38;;
68273;SDS011;55104;47.356;19.448;2024-02-23T07:05:29;7.67;;;1.70;;
68273;SDS011;55104;47.356;19.448;2024-02-23T07:08:32;5.82;;;1.50;;
68273;SDS011;55104;47.356;19.448;2024-02-23T07:11:35;2.78;;;0.90;;
68273;SDS011;55104;47.356;19.448;2024-02-23T07:14:37;4.07;;;1.20;;
68273;SDS011;55104;47.356;19.448;2024-02-23T07:17:40;6.73;;;1.77;;
68273;SDS011;55104;47.356;19.448;2024-02-23T07:20:43;4.13;;;1.30;;
68273;SDS011;55104;47.356;19.448;2024-02-23T07:23:45;9.70;;;2.13;;
68273;SDS011;55104;47.356;19.448;2024-02-23T07:26:47;5.03;;;1.92;;
68273;SDS011;55104;47.356;19.448;2024-02-23T07:29:50;6.17;;;1.80;;
68273;SDS011;55104;47.356;19.448;2024-02-23T07:32:52;4.00;;;1.35;;
68273;SDS011;55104;47.356;19.448;2024-02-23T07:35:54;5.45;;;1.80;;
68273;SDS011;55104;47.356;19.448;2024-02-23T07:38:56;4.32;;;1.30;;
68273;SDS011;55104;47.356;19.448;2024-02-23T07:41:58;3.90;;;1.27;;
68273;SDS011;55104;47.356;19.448;2024-02-23T07:45:02;4.13;;;1.30;;
68273;SDS011;55104;47.356;19.448;2024-02-23T07:48:06;3.33;;;0.95;;
68273;SDS011;55104;47.356;19.448;2024-02-23T07:51:08;4.10;;;1.40;;
68273;SDS011;55104;47.356;19.448;2024-02-23T07:54:11;3.60;;;1.30;;
68273;SDS011;55104;47.356;19.448;2024-02-23T07:57:13;4.47;;;1.25;;
68273;SDS011;55104;47.356;19.448;2024-02-23T08:00:18;3.38;;;1.25;;
68273;SDS011;55104;47.356;19.448;2024-02-23T08:03:23;8.05;;;1.95;;
68273;SDS011;55104;47.356;19.448;2024-02-23T08:06:25;3.77;;;1.40;;
68273;SDS011;55104;47.356;19.448;2024-02-23T08:09:27;5.28;;;1.45;;
68273;SDS011;55104;47.356;19.448;2024-02-23T08:12:29;4.07;;;1.85;;
68273;SDS011;55104;47.356;19.448;2024-02-23T08:15:32;3.65;;;1.33;;
68273;SDS011;55104;47.356;19.448;2024-02-23T08:18:34;2.77;;;0.80;;
68273;SDS011;55104;47.356;19.448;2024-02-23T08:21:36;10.57;;;1.85;;
68273;SDS011;55104;47.356;19.448;2024-02-23T08:24:38;5.30;;;1.70;;
68273;SDS011;55104;47.356;19.448;2024-02-23T08:27:41;6.80;;;2.00;;
68273;SDS011;55104;47.356;19.448;2024-02-23T08:30:43;4.97;;;1.67;;
68273;SDS011;55104;47.356;19.448;2024-02-23T08:33:45;4.68;;;1.05;;
68273;SDS011;55104;47.356;19.448;2024-02-23T08:36:48;3.30;;;0.80;;
68273;SDS011;55104;47.356;19.448;2024-02-23T08:39:50;4.07;;;0.95;;
68273;SDS011;55104;47.356;19.448;2024-02-23T08:42:53;5.60;;;1.80;;
68273;SDS011;55104;47.356;19.448;2024-02-23T08:45:55;10.18;;;3.65;;
68273;SDS011;55104;47.356;19.448;2024-02-23T08:49:01;4.32;;;1.55;;
68273;SDS011;55104;47.356;19.448;2024-02-23T08:52:04;6.63;;;2.08;;
68273;SDS011;55104;47.356;19.448;2024-02-23T08:55:07;3.93;;;1.40;;
68273;SDS011;55104;47.356;19.448;2024-02-23T08:58:09;7.25;;;1.40;;
68273;SDS011;55104;47.356;19.448;2024-02-23T09:01:11;4.78;;;1.48;;
68273;SDS011;55104;47.356;19.448;2024-02-23T09:04:13;5.43;;;1.98;;
68273;SDS011;55104;47.356;19.448;2024-02-23T09:07:17;6.00;;;2.08;;
68273;SDS011;55104;47.356;19.448;2024-02-23T09:10:23;5.82;;;1.65;;
68273;SDS011;55104;47.356;19.448;2024-02-23T09:13:25;4.38;;;1.35;;
68273;SDS011;55104;47.356;19.448;2024-02-23T09:16:29;5.18;;;1.73;;
68273;SDS011;55104;47.356;19.448;2024-02-23T09:19:31;4.43;;;1.27;;
68273;SDS011;55104;47.356;19.448;2024-02-23T09:22:33;6.10;;;2.38;;
68273;SDS011;55104;47.356;19.448;2024-02-23T09:25:36;6.30;;;1.98;;
68273;SDS011;55104;47.356;19.448;2024-02-23T09:28:41;14.45;;;2.25;;
68273;SDS011;55104;47.356;19.448;2024-02-23T09:31:43;5.83;;;2.27;;
68273;SDS011;55104;47.356;19.448;2024-02-23T09:34:46;4.15;;;1.35;;
68273;SDS011;55104;47.356;19.448;2024-02-23T09:37:48;5.00;;;1.35;;
68273;SDS011;55104;47.356;19.448;2024-02-23T09:40:50;9.57;;;2.83;;
68273;SDS011;55104;47.356;19.448;2024-02-23T09:43:53;10.80;;;2.90;;
68273;SDS011;55104;47.356;19.448;2024-02-23T09:47:00;4.45;;;1.50;;
68273;SDS011;55104;47.356;19.448;2024-02-23T09:50:10;3.38;;;1.30;;
68273;SDS011;55104;47.356;19.448;2024-02-23T09:53:13;4.22;;;1.42;;
68273;SDS011;55104;47.356;19.448;2024-02-23T09:56:16;5.60;;;2.13;;
68273;SDS011;55104;47.356;19.448;2024-02-23T09:59:19;6.35;;;1.73;;
68273;SDS011;55104;47.356;19.448;2024-02-23T10:02:21;4.95;;;1.17;;
68273;SDS011;55104;47.356;19.448;2024-02-23T10:05:26;4.43;;;1.20;;
68273;SDS011;55104;47.356;19.448;2024-02-23T10:08:37;3.10;;;1.33;;
68273;SDS011;55104;47.356;19.448;2024-02-23T10:11:39;5.47;;;1.75;;
68273;SDS011;55104;47.356;19.448;2024-02-23T10:14:42;5.85;;;1.60;;
68273;SDS011;55104;47.356;19.448;2024-02-23T10:17:44;7.00;;;1.88;;
68273;SDS011;55104;47.356;19.448;2024-02-23T10:20:47;11.27;;;2.92;;
68273;SDS011;55104;47.356;19.448;2024-02-23T10:23:49;8.13;;;2.53;;
68273;SDS011;55104;47.356;19.448;2024-02-23T10:26:52;5.93;;;1.83;;
68273;SDS011;55104;47.356;19.448;2024-02-23T10:29:55;5.13;;;1.38;;
68273;SDS011;55104;47.356;19.448;2024-02-23T10:32:57;7.88;;;2.80;;
68273;SDS011;55104;47.356;19.448;2024-02-23T10:36:00;6.80;;;2.27;;
68273;SDS011;55104;47.356;19.448;2024-02-23T10:39:02;4.20;;;1.27;;
68273;SDS011;55104;47.356;19.448;2024-02-23T10:42:07;4.22;;;1.77;;
68273;SDS011;55104;47.356;19.448;2024-02-23T10:45:11;4.97;;;1.60;;
68273;SDS011;55104;47.356;19.448;2024-02-23T10:48:13;6.50;;;2.10;;
68273;SDS011;55104;47.356;19.448;2024-02-23T10:51:17;6.80;;;2.17;;
68273;SDS011;55104;47.356;19.448;2024-02-23T10:54:22;13.48;;;2.28;;
68273;SDS011;55104;47.356;19.448;2024-02-23T10:57:24;6.55;;;2.40;;
68273;SDS011;55104;47.356;19.448;2024-02-23T11:00:27;4.55;;;1.85;;
68273;SDS011;55104;47.356;19.448;2024-02-23T11:03:30;5.45;;;1.40;;
68273;SDS011;55104;47.356;19.448;2024-02-23T11:06:34;6.47;;;1.73;;
68273;SDS011;55104;47.356;19.448;2024-02-23T11:09:37;2.67;;;0.82;;
68273;SDS011;55104;47.356;19.448;2024-02-23T11:12:39;2.58;;;0.98;;
68273;SDS011;55104;47.356;19.448;2024-02-23T11:15:41;9.82;;;1.70;;
68273;SDS011;55104;47.356;19.448;2024-02-23T11:18:44;5.25;;;1.40;;
68273;SDS011;55104;47.356;19.448;2024-02-23T11:21:52;4.82;;;2.00;;
68273;SDS011;55104;47.356;19.448;2024-02-23T11:24:59;4.60;;;1.83;;
68273;SDS011;55104;47.356;19.448;2024-02-23T11:28:20;4.07;;;1.38;;
68273;SDS011;55104;47.356;19.448;2024-02-23T11:31:24;5.03;;;1.20;;
68273;SDS011;55104;47.356;19.448;2024-02-23T11:34:30;5.78;;;1.83;;
68273;SDS011;55104;47.356;19.448;2024-02-23T11:37:32;4.30;;;1.52;;
68273;SDS011;55104;47.356;19.448;2024-02-23T11:40:35;4.75;;;1.67;;
68273;SDS011;55104;47.356;19.448;2024-02-23T11:43:39;4.35;;;1.65;;
68273;SDS011;55104;47.356;19.448;2024-02-23T11:46:41;5.97;;;2.08;;
68273;SDS011;55104;47.356;19.448;2024-02-23T11:49:43;9.63;;;2.25;;
68273;SDS011;55104;47.356;19.448;2024-02-23T11:52:46;5.35;;;2.22;;
68273;SDS011;55104;47.356;19.448;2024-02-23T11:55:48;5.82;;;2.35;;
68273;SDS011;55104;47.356;19.448;2024-02-23T11:58:51;5.45;;;2.30;;
68273;SDS011;55104;47.356;19.448;2024-02-23T12:01:53;9.73;;;4.05;;
68273;SDS011;55104;47.356;19.448;2024-02-23T12:04:55;12.57;;;5.23;;
68273;SDS011;55104;47.356;19.448;2024-02-23T12:07:57;9.38;;;4.30;;
68273;SDS011;55104;47.356;19.448;2024-02-23T12:11:00;11.63;;;5.05;;
68273;SDS011;55104;47.356;19.448;2024-02-23T12:14:03;8.93;;;3.95;;
68273;SDS011;55104;47.356;19.448;2024-02-23T12:17:09;6.63;;;3.13;;
68273;SDS011;55104;47.356;19.448;2024-02-23T12:20:11;8.63;;;3.80;;
68273;SDS011;55104;47.356;19.448;2024-02-23T12:23:14;7.15;;;2.70;;
68273;SDS011;55104;47.356;19.448;2024-02-23T12:26:17;7.60;;;2.45;;
68273;SDS011;55104;47.356;19.448;2024-02-23T12:29:20;7.80;;;3.03;;
68273;SDS011;55104;47.356;19.448;2024-02-23T12:32:22;7.40;;;2.67;;
68273;SDS011;55104;47.356;19.448;2024-02-23T12:35:24;8.30;;;3.72;;
68273;SDS011;55104;47.356;19.448;2024-02-23T12:38:27;8.98;;;3.53;;
68273;SDS011;55104;47.356;19.448;2024-02-23T12:41:30;9.75;;;4.13;;
68273;SDS011;55104;47.356;19.448;2024-02-23T12:44:33;14.77;;;4.32;;
68273;SDS011;55104;47.356;19.448;2024-02-23T12:47:35;11.63;;;4.82;;
68273;SDS011;55104;47.356;19.448;2024-02-23T12:50:38;12.70;;;5.10;;
68273;SDS011;55104;47.356;19.448;2024-02-23T12:53:40;11.88;;;4.82;;
68273;SDS011;55104;47.356;19.448;2024-02-23T12:56:44;10.45;;;4.15;;
68273;SDS011;55104;47.356;19.448;2024-02-23T12:59:46;9.50;;;3.50;;
68273;SDS011;55104;47.356;19.448;2024-02-23T13:02:48;8.35;;;4.00;;
68273;SDS011;55104;47.356;19.448;2024-02-23T13:05:50;10.90;;;3.97;;
68273;SDS011;55104;47.356;19.448;2024-02-23T13:08:53;12.60;;;4.00;;
68273;SDS011;55104;47.356;19.448;2024-02-23T13:11:55;10.00;;;3.50;;
68273;SDS011;55104;47.356;19.448;2024-02-23T13:14:57;10.52;;;4.10;;
68273;SDS011;55104;47.356;19.448;2024-02-23T13:18:00;13.93;;;5.75;;
68273;SDS011;55104;47.356;19.448;2024-02-23T13:21:04;10.60;;;4.20;;
68273;SDS011;55104;47.356;19.448;2024-02-23T13:24:06;11.25;;;5.25;;
68273;SDS011;55104;47.356;19.448;2024-02-23T13:27:08;14.32;;;5.18;;
68273;SDS011;55104;47.356;19.448;2024-02-23T13:30:11;14.85;;;6.00;;
68273;SDS011;55104;47.356;19.448;2024-02-23T13:33:14;12.00;;;5.17;;
68273;SDS011;55104;47.356;19.448;2024-02-23T13:36:18;10.95;;;5.82;;
68273;SDS011;55104;47.356;19.448;2024-02-23T13:39:20;13.45;;;5.70;;
68273;SDS011;55104;47.356;19.448;2024-02-23T13:42:22;20.40;;;9.82;;
68273;SDS011;55104;47.356;19.448;2024-02-23T13:45:24;26.45;;;9.93;;
68273;SDS011;55104;47.356;19.448;2024-02-23T13:48:27;23.50;;;11.23;;
68273;SDS011;55104;47.356;19.448;2024-02-23T13:51:29;24.10;;;12.25;;
68273;SDS011;55104;47.356;19.448;2024-02-23T13:54:31;21.60;;;10.43;;
68273;SDS011;55104;47.356;19.448;2024-02-23T13:57:34;14.48;;;5.40;;
68273;SDS011;55104;47.356;19.448;2024-02-23T14:00:42;9.35;;;5.03;;
68273;SDS011;55104;47.356;19.448;2024-02-23T14:03:45;13.60;;;6.05;;
68273;SDS011;55104;47.356;19.448;2024-02-23T14:06:47;13.20;;;4.57;;
68273;SDS011;55104;47.356;19.448;2024-02-23T14:09:49;10.00;;;4.03;;
68273;SDS011;55104;47.356;19.448;2024-02-23T14:12:53;9.10;;;3.67;;
68273;SDS011;55104;47.356;19.448;2024-02-23T14:15:57;12.00;;;4.43;;
68273;SDS011;55104;47.356;19.448;2024-02-23T14:19:00;11.65;;;4.90;;
68273;SDS011;55104;47.356;19.448;2024-02-23T14:22:03;13.90;;;5.40;;
68273;SDS011;55104;47.356;19.448;2024-02-23T14:25:05;7.80;;;3.10;;
68273;SDS011;55104;47.356;19.448;2024-02-23T14:28:08;9.77;;;4.00;;
68273;SDS011;55104;47.356;19.448;2024-02-23T14:31:12;12.23;;;5.05;;
68273;SDS011;55104;47.356;19.448;2024-02-23T14:34:15;16.50;;;6.57;;
68273;SDS011;55104;47.356;19.448;2024-02-23T14:37:17;20.40;;;9.23;;
68273;SDS011;55104;47.356;19.448;2024-02-23T14:40:19;17.33;;;8.67;;
68273;SDS011;55104;47.356;19.448;2024-02-23T14:43:21;35.90;;;14.73;;
68273;SDS011;55104;47.356;19.448;2024-02-23T14:46:23;50.70;;;24.23;;
68273;SDS011;55104;47.356;19.448;2024-02-23T14:49:25;31.75;;;15.77;;
68273;SDS011;55104;47.356;19.448;2024-02-23T14:52:28;18.73;;;9.93;;
68273;SDS011;55104;47.356;19.448;2024-02-23T14:55:30;20.17;;;9.90;;
68273;SDS011;55104;47.356;19.448;2024-02-23T14:58:32;24.27;;;9.07;;
68273;SDS011;55104;47.356;19.448;2024-02-23T15:01:36;16.15;;;6.88;;
68273;SDS011;55104;47.356;19.448;2024-02-23T15:04:39;15.70;;;7.13;;
68273;SDS011;55104;47.356;19.448;2024-02-23T15:07:41;11.80;;;4.93;;
68273;SDS011;55104;47.356;19.448;2024-02-23T15:10:44;8.43;;;4.70;;
68273;SDS011;55104;47.356;19.448;2024-02-23T15:13:46;13.07;;;4.78;;
68273;SDS011;55104;47.356;19.448;2024-02-23T15:16:48;13.40;;;5.55;;
68273;SDS011;55104;47.356;19.448;2024-02-23T15:19:51;28.57;;;15.30;;
68273;SDS011;55104;47.356;19.448;2024-02-23T15:22:53;33.60;;;19.00;;
68273;SDS011;55104;47.356;19.448;2024-02-23T15:25:55;33.47;;;13.68;;
68273;SDS011;55104;47.356;19.448;2024-02-23T15:29:11;15.82;;;7.53;;
68273;SDS011;55104;47.356;19.448;2024-02-23T15:32:16;16.15;;;7.03;;
68273;SDS011;55104;47.356;19.448;2024-02-23T15:35:19;15.53;;;7.30;;
68273;SDS011;55104;47.356;19.448;2024-02-23T15:38:22;16.27;;;6.75;;
68273;SDS011;55104;47.356;19.448;2024-02-23T15:41:25;16.30;;;6.78;;
68273;SDS011;55104;47.356;19.448;2024-02-23T15:44:28;13.88;;;5.75;;
68273;SDS011;55104;47.356;19.448;2024-02-23T15:47:32;11.17;;;4.27;;
68273;SDS011;55104;47.356;19.448;2024-02-23T15:50:35;22.02;;;6.47;;
68273;SDS011;55104;47.356;19.448;2024-02-23T15:54:04;14.43;;;6.60;;
68273;SDS011;55104;47.356;19.448;2024-02-23T15:57:06;13.75;;;6.63;;
68273;SDS011;55104;47.356;19.448;2024-02-23T16:00:10;11.83;;;5.10;;
68273;SDS011;55104;47.356;19.448;2024-02-23T16:03:13;12.32;;;5.90;;
68273;SDS011;55104;47.356;19.448;2024-02-23T16:06:18;13.95;;;5.97;;
68273;SDS011;55104;47.356;19.448;2024-02-23T16:09:20;7.60;;;4.22;;
68273;SDS011;55104;47.356;19.448;2024-02-23T16:12:23;10.38;;;4.40;;
68273;SDS011;55104;47.356;19.448;2024-02-23T16:15:25;8.63;;;3.97;;
68273;SDS011;55104;47.356;19.448;2024-02-23T16:18:27;12.90;;;4.60;;
68273;SDS011;55104;47.356;19.448;2024-02-23T16:21:29;15.48;;;4.55;;
68273;SDS011;55104;47.356;19.448;2024-02-23T16:24:33;15.30;;;7.07;;
68273;SDS011;55104;47.356;19.448;2024-02-23T16:27:35;15.73;;;7.53;;
68273;SDS011;55104;47.356;19.448;2024-02-23T16:30:38;14.15;;;5.18;;
68273;SDS011;55104;47.356;19.448;2024-02-23T16:33:41;9.70;;;4.55;;
68273;SDS011;55104;47.356;19.448;2024-02-23T16:36:43;9.38;;;4.45;;
68273;SDS011;55104;47.356;19.448;2024-02-23T16:39:46;11.88;;;4.75;;
68273;SDS011;55104;47.356;19.448;2024-02-23T16:42:49;14.60;;;7.07;;
68273;SDS011;55104;47.356;19.448;2024-02-23T16:45:51;37.88;;;19.13;;
68273;SDS011;55104;47.356;19.448;2024-02-23T16:48:54;137.15;;;51.67;;
68273;SDS011;55104;47.356;19.448;2024-02-23T16:51:56;78.43;;;26.98;;
68273;SDS011;55104;47.356;19.448;2024-02-23T16:54:58;27.38;;;9.05;;
68273;SDS011;55104;47.356;19.448;2024-02-23T16:58:02;31.23;;;12.43;;
68273;SDS011;55104;47.356;19.448;2024-02-23T17:01:05;18.55;;;8.02;;
68273;SDS011;55104;47.356;19.448;2024-02-23T17:04:08;23.48;;;9.85;;
68273;SDS011;55104;47.356;19.448;2024-02-23T17:07:10;14.73;;;6.55;;
68273;SDS011;55104;47.356;19.448;2024-02-23T17:10:12;15.48;;;9.15;;
68273;SDS011;55104;47.356;19.448;2024-02-23T17:13:14;13.85;;;6.55;;
68273;SDS011;55104;47.356;19.448;2024-02-23T17:16:16;15.05;;;6.40;;
68273;SDS011;55104;47.356;19.448;2024-02-23T17:19:19;16.33;;;6.90;;
68273;SDS011;55104;47.356;19.448;2024-02-23T17:22:22;20.95;;;8.23;;
68273;SDS011;55104;47.356;19.448;2024-02-23T17:25:27;15.52;;;9.05;;
68273;SDS011;55104;47.356;19.448;2024-02-23T17:28:29;14.03;;;6.33;;
68273;SDS011;55104;47.356;19.448;2024-02-23T17:31:32;14.70;;;5.57;;
68273;SDS011;55104;47.356;19.448;2024-02-23T17:34:34;10.88;;;5.32;;
68273;SDS011;55104;47.356;19.448;2024-02-23T17:37:36;52.67;;;19.85;;
68273;SDS011;55104;47.356;19.448;2024-02-23T17:40:39;20.90;;;7.03;;
68273;SDS011;55104;47.356;19.448;2024-02-23T17:43:41;15.05;;;5.95;;
68273;SDS011;55104;47.356;19.448;2024-02-23T17:46:43;9.25;;;4.07;;
68273;SDS011;55104;47.356;19.448;2024-02-23T17:49:50;12.45;;;4.03;;
68273;SDS011;55104;47.356;19.448;2024-02-23T17:52:52;11.80;;;5.22;;
68273;SDS011;55104;47.356;19.448;2024-02-23T17:55:54;7.85;;;4.53;;
68273;SDS011;55104;47.356;19.448;2024-02-23T17:58:59;9.75;;;4.20;;
68273;SDS011;55104;47.356;19.448;2024-02-23T18:02:01;11.87;;;4.50;;